Fancher, New York
Current Conditions -  °F | °C
As of 4:54 AM on Saturday 29 Nov 2014 (Local Time) from KROC Reporting Station
Overcast Overcast  
Wind Chill: 19°   Ceiling: 9000
Heat Index: 27°   Visibility: 10mi
Dew Point: 17°   Wind: 7mph
Humidity: 66%   Direction: 190°S
Pressure: 30.18"   Gusts: NA
Location:  43.24°N, 78.09°W
Report Text: KROC 290954Z 19006KT 10SM SCT036 OVC090 M03/M08 A3018 RMK AO2 SLP232 T10281083
Loading
Personal Weather Stations






























Interactive Weather Map New forecast layout! Learn more

10-Day Weather Forecast

Advertisements
Track Severe Weather on mobile